createdAt,value
2018-06-15T00:00:00.702Z,82.52
2018-06-15T00:02:35.649Z,83.21
2018-06-15T00:05:07.893Z,83.22
2018-06-15T00:07:41.010Z,83.41
2018-06-15T00:10:14.159Z,83.89
2018-06-15T00:12:47.625Z,83.86
2018-06-15T00:15:20.846Z,83.61
2018-06-15T00:17:53.370Z,83.99
2018-06-15T00:20:28.044Z,84.20
2018-06-15T00:22:59.631Z,84.23
2018-06-15T00:25:31.978Z,84.30
2018-06-15T00:28:03.777Z,84.31
2018-06-15T00:30:34.303Z,84.38
2018-06-15T00:33:07.887Z,84.05
2018-06-15T00:35:41.104Z,83.68
2018-06-15T00:38:12.719Z,83.69
2018-06-15T00:40:47.309Z,83.78
2018-06-15T00:43:22.196Z,83.85
2018-06-15T00:45:55.133Z,83.42
2018-06-15T00:48:28.450Z,83.40
2018-06-15T00:51:02.953Z,83.30
2018-06-15T00:53:34.394Z,83.05
2018-06-15T00:56:09.397Z,85.12
2018-06-15T00:58:42.588Z,86.69
2018-06-15T01:01:15.551Z,86.79
2018-06-15T01:03:48.768Z,87.12
2018-06-15T01:06:20.123Z,87.21
2018-06-15T01:08:51.636Z,87.49
2018-06-15T01:11:24.599Z,87.81
2018-06-15T01:13:55.146Z,87.17
2018-06-15T01:16:27.905Z,86.97
2018-06-15T01:19:01.010Z,87.17
2018-06-15T01:21:35.341Z,87.42
2018-06-15T01:24:08.768Z,87.28
2018-06-15T01:26:43.330Z,87.36
2018-06-15T01:29:15.256Z,87.12
2018-06-15T01:31:45.241Z,87.15
2018-06-15T01:34:18.715Z,87.63
2018-06-15T01:36:51.776Z,87.77
2018-06-15T01:39:25.477Z,88.03
2018-06-15T01:41:58.780Z,87.76
2018-06-15T01:44:31.836Z,88.25
2018-06-15T01:47:03.432Z,87.90
2018-06-15T01:49:34.933Z,87.35
2018-06-15T01:52:07.500Z,88.03
2018-06-15T01:54:39.859Z,88.32
2018-06-15T01:57:09.879Z,88.72
2018-06-15T01:59:42.983Z,88.45
2018-06-15T02:02:16.129Z,88.57
2018-06-15T02:04:46.284Z,88.88
2018-06-15T02:07:18.474Z,88.53
2018-06-15T02:09:49.983Z,88.59
2018-06-15T02:12:24.237Z,88.51
2018-06-15T02:14:58.626Z,88.54
2018-06-15T02:17:30.729Z,88.47
2018-06-15T02:20:02.343Z,88.34
2018-06-15T02:22:37.510Z,88.40
2018-06-15T02:25:12.124Z,88.17
2018-06-15T02:27:43.635Z,87.94
2018-06-15T02:30:18.271Z,88.09
2018-06-15T02:32:52.818Z,87.28
2018-06-15T02:35:26.057Z,87.39
2018-06-15T02:38:00.570Z,87.65
2018-06-15T02:40:33.539Z,88.04
2018-06-15T02:43:07.180Z,87.46
2018-06-15T02:45:41.637Z,87.67
2018-06-15T02:48:13.617Z,87.87
2018-06-15T02:50:45.063Z,87.77
2018-06-15T02:53:18.623Z,87.95
2018-06-15T02:55:53.104Z,88.38
2018-06-15T02:58:23.221Z,88.69
2018-06-15T03:00:52.692Z,88.46
2018-06-15T03:03:22.031Z,88.35
2018-06-15T03:05:55.439Z,88.43
2018-06-15T03:08:28.199Z,88.26
2018-06-15T03:10:58.661Z,88.06
2018-06-15T03:13:33.160Z,89.00
2018-06-15T03:16:06.164Z,89.39
2018-06-15T03:18:39.435Z,88.90
2018-06-15T03:21:12.586Z,88.46
2018-06-15T03:23:44.162Z,88.86
2018-06-15T03:26:17.286Z,88.61
2018-06-15T03:28:52.055Z,88.59
2018-06-15T03:31:25.155Z,88.54
2018-06-15T03:33:58.621Z,88.59
2018-06-15T03:36:33.658Z,89.79
2018-06-15T03:39:07.352Z,89.12
2018-06-15T03:41:36.722Z,88.14
2018-06-15T03:44:10.026Z,88.06
2018-06-15T03:46:44.945Z,87.71
2018-06-15T03:49:17.120Z,88.04
2018-06-15T03:51:48.628Z,88.33
2018-06-15T03:54:21.871Z,88.73
2018-06-15T03:56:55.041Z,88.34
2018-06-15T03:59:26.948Z,88.34
2018-06-15T04:01:57.637Z,88.58
2018-06-15T04:04:32.334Z,88.04
2018-06-15T04:07:03.884Z,88.66
2018-06-15T04:09:38.382Z,88.92
2018-06-15T04:12:08.271Z,88.90
2018-06-15T04:14:40.016Z,89.41
2018-06-15T04:17:12.959Z,89.22
2018-06-15T04:19:46.234Z,88.83
2018-06-15T04:22:16.937Z,87.79
2018-06-15T04:24:49.021Z,87.63
2018-06-15T04:27:22.214Z,87.19
2018-06-15T04:29:55.498Z,86.61
2018-06-15T04:32:28.707Z,86.81
2018-06-15T04:35:01.963Z,86.83
2018-06-15T04:37:34.025Z,86.34
2018-06-15T04:40:08.634Z,85.89
2018-06-15T04:42:43.423Z,85.30
2018-06-15T04:45:16.892Z,85.38
2018-06-15T04:47:50.014Z,85.49
2018-06-15T04:50:20.064Z,84.88
2018-06-15T04:52:51.503Z,84.93
2018-06-15T04:55:24.524Z,83.96
2018-06-15T04:57:58.150Z,83.75
2018-06-15T05:00:31.422Z,82.74
2018-06-15T05:03:06.034Z,82.59
2018-06-15T05:05:36.140Z,83.55
2018-06-15T05:08:09.331Z,82.22
2018-06-15T05:10:41.464Z,81.56
2018-06-15T05:13:15.831Z,81.85
2018-06-15T05:15:49.283Z,81.57
2018-06-15T05:18:20.989Z,81.99
2018-06-15T05:20:54.191Z,81.71
2018-06-15T05:23:24.196Z,81.46
2018-06-15T05:25:55.929Z,80.77
2018-06-15T05:28:28.839Z,80.54
2018-06-15T05:31:02.068Z,80.36
2018-06-15T05:33:33.787Z,80.56
2018-06-15T05:36:08.743Z,79.73
2018-06-15T05:38:41.816Z,78.73
2018-06-15T05:41:14.537Z,76.63
2018-06-15T05:43:44.514Z,74.84
2018-06-15T05:46:15.704Z,71.14
2018-06-15T05:48:48.824Z,71.99
2018-06-15T05:51:21.739Z,72.31
2018-06-15T05:53:56.336Z,72.12
2018-06-15T05:56:27.741Z,74.81
2018-06-15T05:58:59.233Z,76.15
2018-06-15T06:01:34.163Z,75.75
2018-06-15T06:04:07.306Z,75.32
2018-06-15T06:06:40.373Z,76.82
2018-06-15T06:09:11.577Z,77.34
2018-06-15T06:11:44.798Z,76.81
2018-06-15T06:14:16.832Z,76.81
2018-06-15T06:16:46.897Z,76.18
2018-06-15T06:19:18.401Z,76.17
2018-06-15T06:21:52.125Z,76.03
2018-06-15T06:24:25.059Z,75.51
2018-06-15T06:26:55.632Z,76.37
2018-06-15T06:29:28.726Z,75.25
2018-06-15T06:32:00.241Z,73.54
2018-06-15T06:34:33.820Z,72.47
2018-06-15T06:37:08.854Z,73.26
2018-06-15T06:39:42.175Z,73.87
2018-06-15T06:42:12.136Z,72.57
2018-06-15T06:44:44.968Z,73.42
2018-06-15T06:47:16.585Z,74.33
2018-06-15T06:49:50.964Z,74.47
2018-06-15T06:52:23.113Z,75.45
2018-06-15T06:54:56.190Z,73.69
2018-06-15T06:57:29.479Z,71.95
2018-06-15T07:00:02.535Z,71.25
2018-06-15T07:02:37.100Z,71.61
2018-06-15T07:05:08.618Z,69.96
2018-06-15T07:07:41.760Z,70.13
2018-06-15T07:10:14.523Z,71.95
2018-06-15T07:12:46.620Z,71.67
2018-06-15T07:15:18.118Z,70.99
2018-06-15T07:17:51.632Z,73.73
2018-06-15T07:20:21.513Z,74.22
2018-06-15T07:22:53.444Z,72.25
2018-06-15T07:25:23.354Z,72.52
2018-06-15T07:27:57.840Z,72.40
2018-06-15T07:30:40.256Z,70.28
2018-06-15T07:33:11.648Z,69.66
2018-06-15T07:35:44.828Z,67.96
2018-06-15T07:38:18.192Z,63.04
2018-06-15T07:40:51.276Z,58.07
2018-06-15T07:43:25.669Z,61.11
2018-06-15T07:46:00.155Z,57.43
2018-06-15T07:48:31.650Z,57.41
2018-06-15T07:51:03.559Z,56.51
2018-06-15T07:53:36.589Z,56.03
2018-06-15T07:56:08.077Z,59.50
2018-06-15T07:58:41.150Z,60.75
2018-06-15T08:01:16.060Z,63.42
2018-06-15T08:04:05.828Z,63.27
2018-06-15T08:06:38.749Z,66.74
2018-06-15T08:09:12.961Z,61.64
2018-06-15T08:11:46.059Z,64.42
2018-06-15T08:14:17.471Z,63.19
2018-06-15T08:16:51.841Z,63.03
2018-06-15T08:19:24.845Z,65.04
2018-06-15T08:21:54.781Z,66.06
2018-06-15T08:24:26.742Z,65.49
2018-06-15T08:27:06.995Z,66.38
2018-06-15T08:29:38.441Z,65.21
2018-06-15T08:32:08.468Z,65.03
2018-06-15T08:34:41.537Z,65.92
2018-06-15T08:37:14.669Z,65.09
2018-06-15T08:39:46.201Z,64.26
2018-06-15T08:42:19.185Z,62.00
2018-06-15T08:44:53.765Z,57.17
2018-06-15T08:47:24.578Z,53.11
2018-06-15T08:49:58.832Z,53.73
2018-06-15T08:52:32.462Z,53.07
2018-06-15T08:55:04.045Z,53.56
2018-06-15T08:57:33.943Z,54.69
2018-06-15T09:00:06.761Z,55.21
2018-06-15T09:02:39.685Z,54.83
2018-06-15T09:05:13.184Z,55.04
2018-06-15T09:07:45.276Z,52.87
2018-06-15T09:10:16.693Z,52.05
2018-06-15T09:12:49.649Z,50.86
2018-06-15T09:15:22.651Z,49.62
2018-06-15T09:17:54.023Z,49.64
2018-06-15T09:20:24.420Z,50.88
2018-06-15T09:22:59.252Z,51.54
2018-06-15T09:25:32.224Z,51.20
2018-06-15T09:28:03.713Z,51.17
2018-06-15T09:30:35.076Z,49.63
2018-06-15T09:33:07.962Z,47.96
2018-06-15T09:35:42.326Z,48.54
2018-06-15T09:38:16.587Z,48.48
2018-06-15T09:40:48.497Z,49.30
2018-06-15T09:43:21.638Z,44.76
2018-06-15T09:45:53.559Z,44.50
2018-06-15T09:48:23.510Z,45.63
2018-06-15T09:50:56.532Z,46.17
2018-06-15T09:53:28.115Z,43.77
2018-06-15T09:56:00.154Z,43.93
2018-06-15T09:58:31.677Z,44.11
2018-06-15T10:01:15.030Z,46.38
2018-06-15T10:03:48.193Z,44.48
2018-06-15T10:06:18.882Z,46.43
2018-06-15T10:08:50.743Z,43.75
2018-06-15T10:11:21.261Z,42.93
2018-06-15T10:13:52.604Z,44.12
2018-06-15T10:16:25.998Z,41.84
2018-06-15T10:18:58.043Z,43.45
2018-06-15T10:21:30.814Z,44.82
2018-06-15T10:24:00.817Z,44.03
2018-06-15T10:26:33.728Z,44.05
2018-06-15T10:29:08.268Z,42.75
2018-06-15T10:31:39.353Z,41.48
2018-06-15T10:34:10.743Z,43.84
2018-06-15T10:36:42.507Z,41.57
2018-06-15T10:39:16.590Z,42.87
2018-06-15T10:41:49.403Z,42.84
2018-06-15T10:44:22.570Z,44.00
2018-06-15T10:46:56.910Z,43.49
2018-06-15T10:49:26.837Z,46.11
2018-06-15T10:51:58.816Z,43.02
2018-06-15T10:54:32.247Z,43.38
2018-06-15T10:57:04.680Z,41.97
2018-06-15T10:59:37.595Z,43.49
2018-06-15T11:02:10.819Z,41.68
2018-06-15T11:04:40.631Z,43.28
2018-06-15T11:07:12.169Z,42.80
2018-06-15T11:09:43.572Z,41.23
2018-06-15T11:12:14.958Z,40.42
2018-06-15T11:14:46.533Z,39.00
2018-06-15T11:17:19.738Z,39.11
2018-06-15T11:19:52.879Z,39.64
2018-06-15T11:22:25.701Z,36.74
2018-06-15T11:24:57.086Z,39.32
2018-06-15T11:27:30.226Z,37.79
2018-06-15T11:30:03.942Z,38.91
2018-06-15T11:32:36.789Z,38.30
2018-06-15T11:35:08.533Z,40.00
2018-06-15T11:37:39.951Z,38.99
2018-06-15T11:40:12.409Z,39.79
2018-06-15T11:42:43.852Z,40.46
2018-06-15T11:45:18.073Z,41.68
2018-06-15T11:47:49.993Z,38.04
2018-06-15T11:50:25.082Z,37.33
2018-06-15T11:52:56.934Z,36.70
2018-06-15T11:55:30.029Z,37.66
2018-06-15T11:58:01.388Z,37.61
2018-06-15T12:00:31.884Z,36.84
2018-06-15T12:03:01.822Z,37.92
2018-06-15T12:05:31.633Z,37.62
2018-06-15T12:08:04.433Z,37.94
2018-06-15T12:10:35.853Z,35.69
2018-06-15T12:13:07.835Z,35.81
2018-06-15T12:15:40.788Z,35.22
2018-06-15T12:18:13.044Z,37.40
2018-06-15T12:20:44.410Z,35.84
2018-06-15T12:23:19.013Z,36.88
2018-06-15T12:25:50.462Z,36.74
2018-06-15T12:28:23.517Z,38.61
2018-06-15T12:30:55.247Z,36.60
2018-06-15T12:33:28.147Z,35.64
2018-06-15T12:36:01.264Z,39.55
2018-06-15T12:38:32.612Z,33.83
2018-06-15T12:41:05.402Z,36.52
2018-06-15T12:43:36.764Z,34.48
2018-06-15T12:46:09.631Z,37.44
2018-06-15T12:48:41.040Z,36.12
2018-06-15T12:51:15.470Z,37.92
2018-06-15T12:53:48.918Z,38.68
2018-06-15T12:56:20.409Z,35.33
2018-06-15T12:58:53.345Z,36.74
2018-06-15T13:01:26.555Z,36.89
2018-06-15T13:03:59.912Z,34.91
2018-06-15T13:06:31.325Z,35.70
2018-06-15T13:09:03.695Z,33.75
2018-06-15T13:11:39.134Z,35.89
2018-06-15T13:14:10.556Z,38.12
2018-06-15T13:16:41.901Z,38.94
2018-06-15T13:19:14.916Z,38.27
2018-06-15T13:21:48.087Z,37.12
2018-06-15T13:24:20.969Z,38.65
2018-06-15T13:26:53.847Z,40.98
2018-06-15T13:29:23.703Z,40.22
2018-06-15T13:31:56.853Z,41.22
2018-06-15T13:34:28.539Z,41.54
2018-06-15T13:36:58.661Z,42.11
2018-06-15T13:39:30.183Z,39.51
2018-06-15T13:42:00.219Z,40.67
2018-06-15T13:44:34.942Z,41.33
2018-06-15T13:47:06.725Z,41.05
2018-06-15T13:49:38.099Z,38.56
2018-06-15T13:52:11.036Z,38.07
2018-06-15T13:54:44.053Z,38.05
2018-06-15T13:57:13.944Z,38.21
2018-06-15T13:59:43.871Z,37.83
2018-06-15T14:02:17.113Z,36.82
2018-06-15T14:04:47.073Z,36.91
2018-06-15T14:07:18.483Z,36.83
2018-06-15T14:09:48.131Z,35.35
2018-06-15T14:12:22.742Z,33.76
2018-06-15T14:14:54.956Z,35.53
2018-06-15T14:17:26.337Z,36.44
2018-06-15T14:19:57.768Z,37.82
2018-06-15T14:22:31.057Z,41.20
2018-06-15T14:25:05.284Z,38.23
2018-06-15T14:27:36.676Z,39.42
2018-06-15T14:30:11.473Z,40.47
2018-06-15T14:32:42.935Z,41.13
2018-06-15T14:35:12.866Z,40.50
2018-06-15T14:37:45.684Z,39.40
2018-06-15T14:40:17.095Z,41.05
2018-06-15T14:42:48.414Z,40.26
2018-06-15T14:45:19.940Z,38.98
2018-06-15T14:47:51.380Z,39.15
2018-06-15T14:50:25.699Z,38.49
2018-06-15T14:52:57.157Z,38.19
2018-06-15T14:55:29.977Z,37.74
2018-06-15T14:58:02.901Z,37.16
2018-06-15T15:00:34.277Z,36.12
2018-06-15T15:03:06.823Z,36.25
2018-06-15T15:05:39.744Z,37.28
2018-06-15T15:08:10.223Z,37.21
2018-06-15T15:10:43.106Z,36.40
2018-06-15T15:13:16.402Z,38.00
2018-06-15T15:15:46.317Z,36.43
2018-06-15T15:18:16.180Z,36.01
2018-06-15T15:20:47.639Z,37.31
2018-06-15T15:23:19.032Z,34.78
2018-06-15T15:25:53.833Z,36.92
2018-06-15T15:28:25.161Z,40.42
2018-06-15T15:30:56.028Z,37.89
2018-06-15T15:33:30.448Z,39.79
2018-06-15T15:36:00.901Z,39.75
2018-06-15T15:38:34.132Z,41.11
2018-06-15T15:41:05.901Z,38.05
2018-06-15T15:43:38.804Z,38.67
2018-06-15T15:46:10.776Z,38.94
2018-06-15T15:48:43.721Z,38.76
2018-06-15T15:51:17.161Z,43.75
2018-06-15T15:53:47.002Z,38.50
2018-06-15T15:56:17.043Z,39.05
2018-06-15T15:58:50.280Z,37.99
2018-06-15T16:01:20.207Z,38.33
2018-06-15T16:03:51.688Z,40.61
2018-06-15T16:06:25.007Z,40.14
2018-06-15T16:08:54.981Z,38.14
2018-06-15T16:11:26.976Z,37.95
2018-06-15T16:13:59.004Z,36.55
2018-06-15T16:16:31.795Z,35.26
2018-06-15T16:19:03.329Z,36.40
2018-06-15T16:21:36.453Z,34.73
2018-06-15T16:24:06.358Z,35.30
2018-06-15T16:26:38.300Z,35.30
2018-06-15T16:29:11.145Z,36.47
2018-06-15T16:31:42.616Z,34.35
2018-06-15T16:34:15.453Z,35.07
2018-06-15T16:36:48.400Z,33.59
2018-06-15T16:39:19.848Z,33.83
2018-06-15T16:41:51.197Z,35.45
2018-06-15T16:44:23.980Z,35.77
2018-06-15T16:46:55.308Z,35.79
2018-06-15T16:49:26.725Z,36.21
2018-06-15T16:51:56.618Z,34.83
2018-06-15T16:54:26.540Z,33.71
2018-06-15T16:56:56.430Z,34.85
2018-06-15T16:59:29.278Z,35.43
2018-06-15T17:02:02.340Z,36.91
2018-06-15T17:04:35.214Z,35.92
2018-06-15T17:07:08.059Z,37.24
2018-06-15T17:09:37.900Z,35.90
2018-06-15T17:12:08.298Z,37.76
2018-06-15T17:14:42.534Z,38.07
2018-06-15T17:17:15.453Z,40.59
2018-06-15T17:19:48.297Z,39.41
2018-06-15T17:22:21.112Z,39.42
2018-06-15T17:24:54.198Z,42.42
2018-06-15T17:27:27.095Z,38.50
2018-06-15T17:29:58.604Z,37.81
2018-06-15T17:32:30.035Z,41.97
2018-06-15T17:35:03.079Z,39.83
2018-06-15T17:37:35.823Z,42.37
2018-06-15T17:40:07.490Z,43.48
2018-06-15T17:42:39.261Z,45.05
2018-06-15T17:45:12.312Z,45.25
2018-06-15T17:47:43.769Z,46.08
2018-06-15T17:50:15.322Z,45.32
2018-06-15T17:52:46.971Z,44.40
2018-06-15T17:55:17.514Z,43.59
2018-06-15T17:57:50.628Z,43.22
2018-06-15T18:00:22.440Z,45.70
2018-06-15T18:02:57.053Z,44.37
2018-06-15T18:05:28.016Z,45.56
2018-06-15T18:08:02.797Z,46.30
2018-06-15T18:10:35.874Z,45.04
2018-06-15T18:13:05.768Z,44.21
2018-06-15T18:15:37.320Z,46.47
2018-06-15T18:18:10.208Z,46.22
2018-06-15T18:20:44.671Z,47.98
2018-06-15T18:23:17.551Z,51.82
2018-06-15T18:25:51.911Z,47.06
2018-06-15T18:28:24.992Z,48.89
2018-06-15T18:30:58.646Z,49.86
2018-06-15T18:33:30.801Z,52.73
2018-06-15T18:36:03.765Z,54.83
2018-06-15T18:38:35.238Z,54.62
2018-06-15T18:41:10.035Z,54.86
2018-06-15T18:43:43.044Z,54.75
2018-06-15T18:46:16.074Z,55.25
2018-06-15T18:48:47.708Z,55.43
2018-06-15T18:51:20.650Z,55.93
2018-06-15T18:53:50.595Z,57.28
2018-06-15T18:56:23.653Z,57.30
2018-06-15T18:58:53.983Z,58.06
2018-06-15T19:01:25.541Z,55.69
2018-06-15T19:03:59.964Z,55.47
2018-06-15T19:06:34.297Z,56.61
2018-06-15T19:09:10.273Z,57.82
2018-06-15T19:11:42.402Z,55.95
2018-06-15T19:14:15.388Z,56.62
2018-06-15T19:16:47.595Z,55.72
2018-06-15T19:19:21.199Z,56.75
2018-06-15T19:21:54.483Z,55.85
2018-06-15T19:24:26.002Z,55.87
2018-06-15T19:26:57.701Z,56.43
2018-06-15T19:29:30.738Z,57.24
2018-06-15T19:32:02.229Z,57.21
2018-06-15T19:34:33.647Z,57.62
2018-06-15T19:37:05.094Z,57.91
2018-06-15T19:39:39.543Z,57.92
2018-06-15T19:42:11.692Z,57.98
2018-06-15T19:44:43.220Z,58.58
2018-06-15T19:47:16.310Z,58.87
2018-06-15T19:49:46.451Z,59.48
2018-06-15T19:52:18.607Z,59.18
2018-06-15T19:54:51.629Z,60.16
2018-06-15T19:57:23.342Z,59.05
2018-06-15T19:59:54.796Z,58.94
2018-06-15T20:02:26.693Z,59.43
2018-06-15T20:04:56.608Z,59.17
2018-06-15T20:07:28.076Z,59.46
2018-06-15T20:10:02.660Z,60.53
2018-06-15T20:12:34.275Z,60.48
2018-06-15T20:15:05.668Z,61.32
2018-06-15T20:17:39.111Z,61.34
2018-06-15T20:20:09.098Z,61.31
2018-06-15T20:22:42.700Z,61.03
2018-06-15T20:25:14.640Z,61.71
2018-06-15T20:27:49.179Z,63.25
2018-06-15T20:30:22.162Z,64.35
2018-06-15T20:32:55.233Z,63.59
2018-06-15T20:35:27.100Z,62.58
2018-06-15T20:37:58.670Z,62.41
2018-06-15T20:40:28.602Z,63.64
2018-06-15T20:42:58.674Z,64.73
2018-06-15T20:45:28.717Z,65.17
2018-06-15T20:48:03.302Z,64.99
2018-06-15T20:50:37.920Z,65.09
2018-06-15T20:53:07.919Z,63.52
2018-06-15T20:55:39.285Z,64.72
2018-06-15T20:58:12.376Z,62.62
2018-06-15T21:00:42.076Z,62.28
2018-06-15T21:03:13.485Z,62.24
2018-06-15T21:05:43.512Z,63.61
2018-06-15T21:08:16.472Z,63.42
2018-06-15T21:10:48.047Z,63.63
2018-06-15T21:13:21.022Z,63.75
2018-06-15T21:15:52.443Z,63.04
2018-06-15T21:18:25.395Z,63.11
2018-06-15T21:20:56.820Z,64.03
2018-06-15T21:23:31.585Z,64.43
2018-06-15T21:26:06.198Z,63.51
2018-06-15T21:28:41.110Z,62.81
2018-06-15T21:31:15.985Z,64.12
2018-06-15T21:33:47.553Z,65.52
2018-06-15T21:36:18.993Z,64.41
2018-06-15T21:38:50.497Z,63.99
2018-06-15T21:41:23.755Z,63.79
2018-06-15T21:43:56.877Z,65.26
2018-06-15T21:46:29.739Z,63.32
2018-06-15T21:49:04.151Z,62.17
2018-06-15T21:51:38.639Z,62.26
2018-06-15T21:54:10.242Z,62.26
2018-06-15T21:56:44.727Z,62.39
2018-06-15T21:59:17.748Z,63.81
2018-06-15T22:01:47.666Z,63.17
2018-06-15T22:04:21.155Z,64.52
2018-06-15T22:06:52.834Z,64.74
2018-06-15T22:09:24.397Z,64.94
2018-06-15T22:11:57.549Z,65.74
2018-06-15T22:14:31.469Z,67.07
2018-06-15T22:17:02.955Z,67.98
2018-06-15T22:19:36.069Z,67.40
2018-06-15T22:22:09.130Z,67.29
2018-06-15T22:24:43.493Z,66.28
2018-06-15T22:27:15.191Z,64.66
2018-06-15T22:29:46.643Z,66.88
2018-06-15T22:32:17.105Z,66.68
2018-06-15T22:34:50.485Z,65.89
2018-06-15T22:37:21.999Z,66.27
2018-06-15T22:39:55.070Z,69.08
2018-06-15T22:42:25.800Z,69.34
2018-06-15T22:45:00.234Z,68.75
2018-06-15T22:47:32.303Z,70.08
2018-06-15T22:50:05.255Z,68.61
2018-06-15T22:52:36.765Z,66.82
2018-06-15T22:55:08.391Z,66.93
2018-06-15T22:57:41.355Z,67.51
2018-06-15T23:00:11.715Z,67.17
2018-06-15T23:02:42.778Z,66.82
2018-06-15T23:05:14.415Z,66.42
2018-06-15T23:07:46.301Z,66.41
2018-06-15T23:10:17.827Z,66.65
2018-06-15T23:12:47.834Z,66.59
2018-06-15T23:15:21.646Z,66.91
2018-06-15T23:17:52.673Z,66.86
2018-06-15T23:20:23.678Z,67.53
2018-06-15T23:22:55.195Z,66.65
2018-06-15T23:25:28.557Z,66.95
2018-06-15T23:28:01.742Z,69.44
2018-06-15T23:30:33.330Z,70.55
2018-06-15T23:33:06.249Z,70.04
2018-06-15T23:35:38.683Z,70.76
2018-06-15T23:38:10.161Z,70.06
2018-06-15T23:40:43.112Z,70.47
2018-06-15T23:43:16.077Z,70.43
2018-06-15T23:45:48.143Z,70.03
2018-06-15T23:48:19.642Z,70.55
2018-06-15T23:50:52.569Z,70.31
2018-06-15T23:53:24.413Z,70.22
2018-06-15T23:55:58.772Z,70.25
2018-06-15T23:58:31.916Z,70.42
